WMKA

Details ICAO WMKA (AOR)
Name Alor Setar Sultan Abdul Halim
Region Malaysia (Peninsular Malaysia)
Timezone Asia/Kuala_Lumpur (UTC+8.0)
Plans Departing 23
Arriving 29
Stats Elevation 15 ft / 5 m (AMSL)
Location 6.189666° 100.398184°
Runways 1
Magnetic Variation 0.229° W
Sunrise 2017-12-10 23:19:54 UTC / 2017-12-11 07:19:54 Local
Sunset 2017-12-11 11:06:05 UTC / 2017-12-11 19:06:05 Local
Advertisement - Login to hide

Runways

ID Width Length Bearing (true) Bearing (mag) Surface Threshold Offset Overrun Length
04 151 ft / 46 m 9,029 ft / 2,752 m 42.31° 42.54° Asphalt 0 ft / 0 m 60 ft / 18 m
22 151 ft / 46 m 9,029 ft / 2,752 m 222.32° 222.55° Asphalt 0 ft / 0 m 0 ft / 0 m

Approach Navaids

Runway Type Ident Frequency Range Bearing (true) Bearing (mag) Slope Elevation
04 Localiser IAS 111.70 MHz 18 nm / 33 km 42.47° 42.70° - 15 ft / 5 m (AMSL)
04 Glidescope IAS 111.70 MHz 10 nm / 19 km 42.31° 42.54° 3.00° 15 ft / 5 m (AMSL)

Map

Weather


0- 5 10 15 20 25 30 35+ Temperature / ° C

Clouds and Precipitation
Forecast for 2017-12-11 00:00 UTC. Updated an hour ago

Ground ~20,000 ft ~40,000 ft Winds

METAR

WMKA 110000Z VRB02KT 6000 FEW030 BKN300 23/22 Q1012

TAF

Not found

Frequencies

Ground 121.60 MHz ALOR STAR GND
Approach 122.30 MHz ALOR STAR APP
Tower 122.30 MHz ALOR STAR TWR
Warning: Do not use this data for real-world aviation or navigation. No guarantee of current accuracy is given.